»·PEaware :: N733UC KSBA-KBUR

N733UC :: KSBA-KBUR

FLIGHT INFORMATION

Flight Status: Arrived
Operator: Privately registered:
United States
More flights under this callsign
Pilot: Bill B. (19180)
Aircraft: CESSNA 172 SKYHAWK
(C172)
More flights by this aircraft type
Origin: KSBA Santa Barbara Mun
United States
Destination: KBUR Bob Hope-Burbank
United States
More flights between these airports :: More routes between these airports
Route: FIM
File this flight plan on PilotEdge
Remarks: Cat 8
Altitude:
(Current/Filed)
5,500ft
Speed:
(Current/Filed)
110kts
Departed: 15-May-18 06:59 PM
Arrived: 15-May-18 07:49 PM
Distance/Time
Traveled:
75nm/0:50
Distance/Time
To Go:
Arrived

Flight Plot

Page will automatically refresh every two minutes.


Map Options




Map Legend


Flown Route
Filed Route
Departure Airport
Arrival Airport
Navaid (VOR, NDB)
Fix

Horizontal Profiles

Position Reports

Time Latitude Longitude Heading Altitude Ground
Speed
15-May-18 18:47 34.422494 -119.835354 69 13ft 0kts
15-May-18 18:48 34.422494 -119.835354 69 13ft 0kts
15-May-18 18:49 34.422494 -119.835354 69 13ft 0kts
15-May-18 18:50 34.422494 -119.835354 69 13ft 0kts
15-May-18 18:51 34.422495 -119.835350 69 13ft 0kts
15-May-18 18:52 34.422496 -119.835346 69 13ft 0kts
15-May-18 18:53 34.422497 -119.835342 69 13ft 0kts
15-May-18 18:54 34.422499 -119.835338 69 13ft 0kts
15-May-18 18:55 34.422888 -119.836271 345 13ft 10kts
15-May-18 18:56 34.426803 -119.837336 62 13ft 11kts
15-May-18 18:57 34.427425 -119.835160 358 13ft 0kts
15-May-18 18:58 34.427891 -119.835666 266 13ft 6kts
15-May-18 18:59 34.427835 -119.855554 266 671ft 69kts
15-May-18 19:00 34.428747 -119.879975 270 1461ft 86kts
15-May-18 19:01 34.430810 -119.913100 272 1667ft 89kts
15-May-18 19:02 34.431322 -119.939991 264 2646ft 78kts
15-May-18 19:03 34.428333 -119.965500 208 3587ft 78kts
15-May-18 19:04 34.415948 -119.943197 95 4313ft 89kts
15-May-18 19:05 34.414328 -119.913251 95 4994ft 92kts
15-May-18 19:06 34.410522 -119.881658 103 5504ft 98kts
15-May-18 19:07 34.408129 -119.853275 97 5634ft 107kts
15-May-18 19:08 34.405912 -119.814790 94 5542ft 118kts
15-May-18 19:09 34.404449 -119.774929 91 5479ft 119kts
15-May-18 19:10 34.404104 -119.735143 92 5548ft 117kts
15-May-18 19:11 34.403019 -119.694655 93 5526ft 120kts
15-May-18 19:12 34.400647 -119.654274 95 5471ft 119kts
15-May-18 19:13 34.399484 -119.614724 93 5463ft 118kts
15-May-18 19:14 34.399650 -119.575106 91 5453ft 117kts
15-May-18 19:15 34.399228 -119.535483 94 5444ft 117kts
15-May-18 19:16 34.398877 -119.495985 91 5446ft 117kts
15-May-18 19:17 34.397085 -119.456730 99 5444ft 116kts
15-May-18 19:18 34.394068 -119.417557 98 5440ft 117kts
15-May-18 19:19 34.391517 -119.378200 96 5465ft 117kts
15-May-18 19:20 34.389182 -119.339013 95 5481ft 116kts
15-May-18 19:21 34.387243 -119.299744 97 5588ft 118kts
15-May-18 19:22 34.383593 -119.259099 97 5591ft 123kts
15-May-18 19:23 34.382019 -119.217836 93 5467ft 120kts
15-May-18 19:24 34.382075 -119.177234 89 5394ft 117kts
15-May-18 19:25 34.383366 -119.138820 95 5504ft 115kts
15-May-18 19:26 34.379339 -119.100038 101 5534ft 115kts
15-May-18 19:27 34.375843 -119.061010 101 5568ft 116kts
15-May-18 19:28 34.370897 -119.022503 95 5534ft 116kts
15-May-18 19:29 34.370522 -118.983304 86 5458ft 117kts
15-May-18 19:30 34.365782 -118.944683 105 5422ft 116kts
15-May-18 19:31 34.358886 -118.907332 105 5459ft 111kts
15-May-18 19:32 34.349711 -118.871502 114 5535ft 113kts
15-May-18 19:33 34.337786 -118.836547 114 5589ft 112kts
15-May-18 19:34 34.330065 -118.804967 105 5552ft 116kts
15-May-18 19:35 34.324895 -118.780453 108 5568ft 114kts
15-May-18 19:36 34.316182 -118.743347 110 5545ft 114kts
15-May-18 19:37 34.305359 -118.706094 112 5329ft 122kts
15-May-18 19:38 34.292204 -118.667597 116 4983ft 124kts
15-May-18 19:39 34.283070 -118.627125 103 4584ft 122kts
15-May-18 19:40 34.274465 -118.586922 107 4291ft 123kts
15-May-18 19:41 34.266563 -118.546888 106 3833ft 123kts
15-May-18 19:42 34.257298 -118.508006 110 3495ft 113kts
15-May-18 19:43 34.247232 -118.472278 112 3226ft 113kts
15-May-18 19:44 34.235418 -118.436901 115 2819ft 115kts
15-May-18 19:45 34.231701 -118.413258 89 2419ft 111kts
15-May-18 19:46 34.232554 -118.381983 94 1813ft 68kts
15-May-18 19:47 34.224417 -118.364835 148 1238ft 52kts
15-May-18 19:48 34.211743 -118.360248 166 825ft 42kts
15-May-18 19:49 34.206524 -118.359749 199 781ft 5kts
15-May-18 19:50 34.205399 -118.359549 166 781ft 4kts
15-May-18 19:51 34.204738 -118.360127 326 781ft 5kts

Navigation Log

Ident Type
1. KSBA Airport
2. FIM Navaid
3. KBUR Airport